createdAt,value
2018-03-31T00:01:08.390Z,99.90
2018-03-31T00:03:35.432Z,99.90
2018-03-31T00:06:02.569Z,99.90
2018-03-31T00:08:29.615Z,99.90
2018-03-31T00:10:57.431Z,99.90
2018-03-31T00:13:24.467Z,99.90
2018-03-31T00:15:51.541Z,99.90
2018-03-31T00:18:19.331Z,99.90
2018-03-31T00:20:46.419Z,99.90
2018-03-31T00:23:14.251Z,99.90
2018-03-31T00:25:42.035Z,99.90
2018-03-31T00:28:09.831Z,99.90
2018-03-31T00:30:36.875Z,99.90
2018-03-31T00:33:03.934Z,99.90
2018-03-31T00:35:31.124Z,99.90
2018-03-31T00:37:58.248Z,99.90
2018-03-31T00:40:26.031Z,99.90
2018-03-31T00:42:53.823Z,99.90
2018-03-31T00:45:20.835Z,99.90
2018-03-31T00:47:48.395Z,99.90
2018-03-31T00:50:15.436Z,99.90
2018-03-31T00:52:42.478Z,99.90
2018-03-31T00:55:09.499Z,99.90
2018-03-31T00:57:37.324Z,99.90
2018-03-31T01:00:04.351Z,99.90
2018-03-31T01:02:31.422Z,99.90
2018-03-31T01:04:58.481Z,99.90
2018-03-31T01:07:26.051Z,99.90
2018-03-31T01:09:53.090Z,99.90
2018-03-31T01:12:20.952Z,99.90
2018-03-31T01:14:48.007Z,99.90
2018-03-31T01:17:15.039Z,99.90
2018-03-31T01:19:42.078Z,99.90
2018-03-31T01:22:09.099Z,99.90
2018-03-31T01:24:36.904Z,99.90
2018-03-31T01:27:03.951Z,99.90
2018-03-31T01:29:31.836Z,99.90
2018-03-31T01:31:58.903Z,99.90
2018-03-31T01:34:25.947Z,99.90
2018-03-31T01:36:53.732Z,99.90
2018-03-31T01:39:20.807Z,99.90
2018-03-31T01:41:47.872Z,99.90
2018-03-31T01:44:14.946Z,99.90
2018-03-31T01:46:41.979Z,99.90
2018-03-31T01:49:09.008Z,99.90
2018-03-31T01:51:36.831Z,99.90
2018-03-31T01:54:04.195Z,99.90
2018-03-31T01:56:31.367Z,99.90
2018-03-31T01:58:59.264Z,99.90
2018-03-31T02:01:26.362Z,99.90
2018-03-31T02:03:54.160Z,99.90
2018-03-31T02:06:21.235Z,99.90
2018-03-31T02:08:48.264Z,99.90
2018-03-31T02:11:15.324Z,99.90
2018-03-31T02:13:42.339Z,99.90
2018-03-31T02:16:09.373Z,99.90
2018-03-31T02:18:36.441Z,99.90
2018-03-31T02:21:03.532Z,99.90
2018-03-31T02:23:31.388Z,99.90
2018-03-31T02:25:58.445Z,99.90
2018-03-31T02:28:25.522Z,99.90
2018-03-31T02:30:52.563Z,99.90
2018-03-31T02:33:19.607Z,99.90
2018-03-31T02:35:46.632Z,99.90
2018-03-31T02:38:13.680Z,99.90
2018-03-31T02:40:41.469Z,99.90
2018-03-31T02:43:08.516Z,99.90
2018-03-31T02:45:36.345Z,99.90
2018-03-31T02:48:03.491Z,99.90
2018-03-31T02:50:30.547Z,99.90
2018-03-31T02:52:57.596Z,99.90
2018-03-31T02:55:25.127Z,99.90
2018-03-31T02:57:52.175Z,99.90
2018-03-31T03:00:19.206Z,99.90
2018-03-31T03:02:47.019Z,99.90
2018-03-31T03:05:14.821Z,99.90
2018-03-31T03:07:42.628Z,99.90
2018-03-31T03:10:09.723Z,99.90
2018-03-31T03:12:36.769Z,99.90
2018-03-31T03:15:04.586Z,99.90
2018-03-31T03:17:32.441Z,99.90
2018-03-31T03:19:59.569Z,99.90
2018-03-31T03:22:26.601Z,99.90
2018-03-31T03:24:53.645Z,99.90
2018-03-31T03:27:21.438Z,99.90
2018-03-31T03:29:48.587Z,99.90
2018-03-31T03:32:16.367Z,99.90
2018-03-31T03:34:44.203Z,99.90
2018-03-31T03:37:11.220Z,99.90
2018-03-31T03:39:38.288Z,99.90
2018-03-31T03:42:05.371Z,99.90
2018-03-31T03:44:32.505Z,99.90
2018-03-31T03:46:59.565Z,99.90
2018-03-31T03:49:26.649Z,99.90
2018-03-31T03:51:54.906Z,99.90
2018-03-31T03:54:21.968Z,99.90
2018-03-31T03:56:49.035Z,99.90
2018-03-31T03:59:16.174Z,99.90
2018-03-31T04:01:43.976Z,99.90
2018-03-31T04:04:11.032Z,99.90
2018-03-31T04:06:38.071Z,99.90
2018-03-31T04:09:05.896Z,99.90
2018-03-31T04:11:33.062Z,99.90
2018-03-31T04:14:00.947Z,99.90
2018-03-31T04:16:29.600Z,99.90
2018-03-31T04:18:56.623Z,99.90
2018-03-31T04:21:23.685Z,99.90
2018-03-31T04:23:50.763Z,99.90
2018-03-31T04:26:17.844Z,99.90
2018-03-31T04:28:44.863Z,99.90
2018-03-31T04:31:11.913Z,99.90
2018-03-31T04:33:38.931Z,99.90
2018-03-31T04:36:06.057Z,99.90
2018-03-31T04:38:33.111Z,99.90
2018-03-31T04:41:00.970Z,99.90
2018-03-31T04:43:28.020Z,99.90
2018-03-31T04:45:55.852Z,99.90
2018-03-31T04:48:22.930Z,99.90
2018-03-31T04:50:50.010Z,99.90
2018-03-31T04:53:17.796Z,99.90
2018-03-31T04:55:45.927Z,99.90
2018-03-31T04:58:12.976Z,99.90
2018-03-31T05:00:40.007Z,99.90
2018-03-31T05:03:07.055Z,99.90
2018-03-31T05:05:34.090Z,99.90
2018-03-31T05:08:01.205Z,99.90
2018-03-31T05:10:28.349Z,99.90
2018-03-31T05:12:56.746Z,99.90
2018-03-31T05:15:24.168Z,99.90
2018-03-31T05:17:51.285Z,99.90
2018-03-31T05:20:18.837Z,99.90
2018-03-31T05:22:45.887Z,99.90
2018-03-31T05:25:12.909Z,99.90
2018-03-31T05:27:40.506Z,99.90
2018-03-31T05:30:07.499Z,99.90
2018-03-31T05:32:35.389Z,99.90
2018-03-31T05:35:02.795Z,99.90
2018-03-31T05:37:29.920Z,99.90
2018-03-31T05:39:56.962Z,99.90
2018-03-31T05:42:24.025Z,99.90
2018-03-31T05:44:51.859Z,99.90
2018-03-31T05:47:18.899Z,99.90
2018-03-31T05:49:45.968Z,99.90
2018-03-31T05:52:13.015Z,99.90
2018-03-31T05:54:40.055Z,99.90
2018-03-31T05:57:07.847Z,99.90
2018-03-31T05:59:34.896Z,99.90
2018-03-31T06:02:01.982Z,99.90
2018-03-31T06:04:29.080Z,99.90
2018-03-31T06:06:56.120Z,99.90
2018-03-31T06:09:23.185Z,99.90
2018-03-31T06:11:50.241Z,99.90
2018-03-31T06:14:17.796Z,99.90
2018-03-31T06:16:44.846Z,99.90
2018-03-31T06:19:11.897Z,99.90
2018-03-31T06:21:38.919Z,99.90
2018-03-31T06:24:06.020Z,99.90
2018-03-31T06:26:33.167Z,99.90
2018-03-31T06:29:00.230Z,99.90
2018-03-31T06:31:27.285Z,99.90
2018-03-31T06:33:54.329Z,99.90
2018-03-31T06:36:22.136Z,99.90
2018-03-31T06:38:49.179Z,99.90
2018-03-31T06:41:16.239Z,99.90
2018-03-31T06:43:43.259Z,99.90
2018-03-31T06:46:10.316Z,99.90
2018-03-31T06:48:37.359Z,99.90
2018-03-31T06:51:04.430Z,99.90
2018-03-31T06:53:31.530Z,99.90
2018-03-31T06:55:58.658Z,99.90
2018-03-31T06:58:25.755Z,99.90
2018-03-31T07:00:52.799Z,99.90
2018-03-31T07:03:20.700Z,99.90
2018-03-31T07:05:47.740Z,99.90
2018-03-31T07:08:15.016Z,99.90
2018-03-31T07:10:42.068Z,99.90
2018-03-31T07:13:09.852Z,99.90
2018-03-31T07:15:36.948Z,99.90
2018-03-31T07:18:04.068Z,99.90
2018-03-31T07:20:31.967Z,99.90
2018-03-31T07:22:59.150Z,99.90
2018-03-31T07:25:26.195Z,99.90
2018-03-31T07:27:53.242Z,99.90
2018-03-31T07:30:20.352Z,99.90
2018-03-31T07:32:47.406Z,99.90
2018-03-31T07:35:14.434Z,99.90
2018-03-31T07:37:41.493Z,99.90
2018-03-31T07:40:08.524Z,99.90
2018-03-31T07:42:36.344Z,99.90
2018-03-31T07:45:03.436Z,99.90
2018-03-31T07:47:30.613Z,99.90
2018-03-31T07:49:58.830Z,99.90
2018-03-31T07:52:25.879Z,99.90
2018-03-31T07:54:52.938Z,99.90
2018-03-31T07:57:20.078Z,99.90
2018-03-31T07:59:47.146Z,99.90
2018-03-31T08:02:14.935Z,99.90
2018-03-31T08:04:41.976Z,99.90
2018-03-31T08:07:09.768Z,99.90
2018-03-31T08:09:36.811Z,99.90
2018-03-31T08:12:04.716Z,99.90
2018-03-31T08:14:31.816Z,99.90
2018-03-31T08:16:58.962Z,99.90
2018-03-31T08:19:26.800Z,99.90
2018-03-31T08:21:53.831Z,99.90
2018-03-31T08:24:20.890Z,99.90
2018-03-31T08:26:47.912Z,99.90
2018-03-31T08:29:14.954Z,99.90
2018-03-31T08:31:41.979Z,99.90
2018-03-31T08:34:09.035Z,99.90
2018-03-31T08:36:36.823Z,99.90
2018-03-31T08:39:04.683Z,99.90
2018-03-31T08:41:31.752Z,99.90
2018-03-31T08:43:59.873Z,99.90
2018-03-31T08:46:26.903Z,99.90
2018-03-31T08:48:54.688Z,99.80
2018-03-31T08:51:22.526Z,99.10
2018-03-31T08:53:49.597Z,99.10
2018-03-31T08:56:17.419Z,97.90
2018-03-31T08:58:44.441Z,97.80
2018-03-31T09:01:11.479Z,99.90
2018-03-31T09:03:38.504Z,99.90
2018-03-31T09:06:05.595Z,97.60
2018-03-31T09:08:32.696Z,97.40
2018-03-31T09:10:59.804Z,98.40
2018-03-31T09:13:26.824Z,96.90
2018-03-31T09:15:53.874Z,95.70
2018-03-31T09:18:21.683Z,97.50
2018-03-31T09:20:48.736Z,97.40
2018-03-31T09:23:15.775Z,94.70
2018-03-31T09:25:43.581Z,93.80
2018-03-31T09:28:10.612Z,93.80
2018-03-31T09:30:38.427Z,94.50
2018-03-31T09:33:05.496Z,94.30
2018-03-31T09:35:32.569Z,91.80
2018-03-31T09:37:59.866Z,92.00
2018-03-31T09:40:27.682Z,95.40
2018-03-31T09:42:54.751Z,95.30
2018-03-31T09:45:21.856Z,91.80
2018-03-31T09:47:49.756Z,93.80
2018-03-31T09:50:16.787Z,93.80
2018-03-31T09:52:44.600Z,84.00
2018-03-31T09:55:12.275Z,83.60
2018-03-31T09:57:39.324Z,91.80
2018-03-31T10:00:06.363Z,91.10
2018-03-31T10:02:34.222Z,85.30
2018-03-31T10:05:01.287Z,85.50
2018-03-31T10:07:29.436Z,89.20
2018-03-31T10:09:56.463Z,89.50
2018-03-31T10:12:23.511Z,84.00
2018-03-31T10:14:51.323Z,72.30
2018-03-31T10:17:18.392Z,72.00
2018-03-31T10:19:45.468Z,74.60
2018-03-31T10:22:12.492Z,71.90
2018-03-31T10:24:39.536Z,78.90
2018-03-31T10:27:06.580Z,61.80
2018-03-31T10:29:34.435Z,71.90
2018-03-31T10:32:01.553Z,71.90
2018-03-31T10:34:28.712Z,77.70
2018-03-31T10:36:55.750Z,67.10
2018-03-31T10:39:23.556Z,78.20
2018-03-31T10:41:50.714Z,79.20
2018-03-31T10:44:17.764Z,61.90
2018-03-31T10:46:44.821Z,59.00
2018-03-31T10:49:11.930Z,62.20
2018-03-31T10:51:38.976Z,63.00
2018-03-31T10:54:06.046Z,70.30
2018-03-31T10:56:33.089Z,55.30
2018-03-31T10:59:00.456Z,64.50
2018-03-31T11:01:27.504Z,64.90
2018-03-31T11:03:54.547Z,54.50
2018-03-31T11:06:21.677Z,52.00
2018-03-31T11:08:48.711Z,55.40
2018-03-31T11:11:15.779Z,55.10
2018-03-31T11:13:42.794Z,56.40
2018-03-31T11:16:09.840Z,56.90
2018-03-31T11:18:36.888Z,56.90
2018-03-31T11:21:04.701Z,52.50
2018-03-31T11:23:31.776Z,52.30
2018-03-31T11:25:58.874Z,54.70
2018-03-31T11:28:26.661Z,55.60
2018-03-31T11:30:54.486Z,51.60
2018-03-31T11:33:21.556Z,51.10
2018-03-31T11:35:48.611Z,51.60
2018-03-31T11:38:15.631Z,49.90
2018-03-31T11:40:42.674Z,55.60
2018-03-31T11:43:10.467Z,50.20
2018-03-31T11:45:37.505Z,49.40
2018-03-31T11:48:04.574Z,47.50
2018-03-31T11:50:31.669Z,50.80
2018-03-31T11:52:58.749Z,48.40
2018-03-31T11:55:25.779Z,47.50
2018-03-31T11:57:52.822Z,51.20
2018-03-31T12:00:19.917Z,57.00
2018-03-31T12:02:46.982Z,47.20
2018-03-31T12:05:14.004Z,47.40
2018-03-31T12:07:41.158Z,55.20
2018-03-31T12:10:08.220Z,56.40
2018-03-31T12:12:35.332Z,57.80
2018-03-31T12:15:02.591Z,55.90
2018-03-31T12:17:29.679Z,58.30
2018-03-31T12:19:57.487Z,73.70
2018-03-31T12:22:24.555Z,73.00
2018-03-31T12:24:51.577Z,63.80
2018-03-31T12:27:19.399Z,73.30
2018-03-31T12:29:46.424Z,73.40
2018-03-31T12:32:14.251Z,67.20
2018-03-31T12:34:41.286Z,67.50
2018-03-31T12:37:08.377Z,65.20
2018-03-31T12:39:35.498Z,72.70
2018-03-31T12:42:02.542Z,66.90
2018-03-31T12:44:30.450Z,59.30
2018-03-31T12:46:57.493Z,59.30
2018-03-31T12:49:24.558Z,72.90
2018-03-31T12:51:51.597Z,55.10
2018-03-31T12:54:18.676Z,70.50
2018-03-31T12:56:46.063Z,67.50
2018-03-31T12:59:13.116Z,62.20
2018-03-31T13:01:40.168Z,58.70
2018-03-31T13:04:07.224Z,56.20
2018-03-31T13:06:34.267Z,59.70
2018-03-31T13:09:02.207Z,67.10
2018-03-31T13:11:29.352Z,67.90
2018-03-31T13:13:56.398Z,62.20
2018-03-31T13:16:23.422Z,62.80
2018-03-31T13:18:51.259Z,60.50
2018-03-31T13:21:18.315Z,60.30
2018-03-31T13:23:48.938Z,54.70
2018-03-31T13:26:17.436Z,59.40
2018-03-31T13:28:44.472Z,59.50
2018-03-31T13:31:11.527Z,62.20
2018-03-31T13:33:38.560Z,61.10
2018-03-31T13:36:06.421Z,69.10
2018-03-31T13:38:33.487Z,68.20
2018-03-31T13:41:00.850Z,71.00
2018-03-31T13:43:27.899Z,67.70
2018-03-31T13:45:55.744Z,69.50
2018-03-31T13:48:22.871Z,69.70
2018-03-31T13:50:50.696Z,76.20
2018-03-31T13:53:17.725Z,75.30
2018-03-31T13:55:44.782Z,72.50
2018-03-31T13:58:11.801Z,72.10
2018-03-31T14:00:38.852Z,76.60
2018-03-31T14:03:05.916Z,73.90
2018-03-31T14:05:34.558Z,66.70
2018-03-31T14:08:01.667Z,66.60
2018-03-31T14:10:28.754Z,69.00
2018-03-31T14:12:56.572Z,55.60
2018-03-31T14:15:24.363Z,52.90
2018-03-31T14:17:51.546Z,53.00
2018-03-31T14:20:18.826Z,59.40
2018-03-31T14:22:46.651Z,52.40
2018-03-31T14:25:13.682Z,53.10
2018-03-31T14:27:41.487Z,56.40
2018-03-31T14:30:08.506Z,56.70
2018-03-31T14:32:36.614Z,58.30
2018-03-31T14:35:03.745Z,58.00
2018-03-31T14:37:30.996Z,55.10
2018-03-31T14:39:58.450Z,56.10
2018-03-31T14:42:26.881Z,57.40
2018-03-31T14:44:54.677Z,55.10
2018-03-31T14:47:21.895Z,55.40
2018-03-31T14:49:48.950Z,65.50
2018-03-31T14:52:16.732Z,58.50
2018-03-31T14:54:43.777Z,58.70
2018-03-31T14:57:10.796Z,57.60
2018-03-31T14:59:37.848Z,61.00
2018-03-31T15:02:04.878Z,57.00
2018-03-31T15:04:32.110Z,60.10
2018-03-31T15:06:59.283Z,61.90
2018-03-31T15:09:26.318Z,58.60
2018-03-31T15:11:53.343Z,65.00
2018-03-31T15:14:22.154Z,63.50
2018-03-31T15:16:49.308Z,63.40
2018-03-31T15:19:16.372Z,68.50
2018-03-31T15:21:43.400Z,68.60
2018-03-31T15:24:11.013Z,71.60
2018-03-31T15:26:38.173Z,69.10
2018-03-31T15:29:06.779Z,67.00
2018-03-31T15:31:33.816Z,66.90
2018-03-31T15:34:00.945Z,64.40
2018-03-31T15:36:29.052Z,71.30
2018-03-31T15:38:56.077Z,71.10
2018-03-31T15:41:23.691Z,67.50
2018-03-31T15:43:50.761Z,65.50
2018-03-31T15:46:17.802Z,66.00
2018-03-31T15:48:45.585Z,69.80
2018-03-31T15:51:13.486Z,69.70
2018-03-31T15:53:40.505Z,76.60
2018-03-31T15:56:08.308Z,80.70
2018-03-31T15:58:35.359Z,79.50
2018-03-31T16:01:02.455Z,68.30
2018-03-31T16:03:30.569Z,66.70
2018-03-31T16:05:57.675Z,71.60
2018-03-31T16:08:24.744Z,70.60
2018-03-31T16:10:51.822Z,74.00
2018-03-31T16:13:18.858Z,74.40
2018-03-31T16:15:45.895Z,76.70
2018-03-31T16:18:13.685Z,73.80
2018-03-31T16:20:40.747Z,73.50
2018-03-31T16:23:07.775Z,67.20
2018-03-31T16:25:34.816Z,73.30
2018-03-31T16:28:01.881Z,75.90
2018-03-31T16:30:28.954Z,74.00
2018-03-31T16:32:56.012Z,67.80
2018-03-31T16:35:23.079Z,71.40
2018-03-31T16:37:51.008Z,74.00
2018-03-31T16:40:18.038Z,75.00
2018-03-31T16:42:45.080Z,71.60
2018-03-31T16:45:12.863Z,74.50
2018-03-31T16:47:40.667Z,76.20
2018-03-31T16:50:07.680Z,76.00
2018-03-31T16:52:35.263Z,78.60
2018-03-31T16:55:03.131Z,78.50
2018-03-31T16:57:30.314Z,78.30
2018-03-31T16:59:57.344Z,75.70
2018-03-31T17:02:24.384Z,76.60
2018-03-31T17:04:51.448Z,79.60
2018-03-31T17:07:18.546Z,80.20
2018-03-31T17:09:46.327Z,83.50
2018-03-31T17:12:14.369Z,83.60
2018-03-31T17:14:41.416Z,83.40
2018-03-31T17:17:08.462Z,84.10
2018-03-31T17:19:35.525Z,85.40
2018-03-31T17:22:02.616Z,86.10
2018-03-31T17:24:29.899Z,85.00
2018-03-31T17:26:56.988Z,87.80
2018-03-31T17:29:24.031Z,88.00
2018-03-31T17:31:51.824Z,90.10
2018-03-31T17:34:18.895Z,90.10
2018-03-31T17:36:45.940Z,91.30
2018-03-31T17:39:12.967Z,89.60
2018-03-31T17:41:39.992Z,90.80
2018-03-31T17:44:07.074Z,87.00
2018-03-31T17:46:34.807Z,89.80
2018-03-31T17:49:02.298Z,91.90
2018-03-31T17:51:30.291Z,91.20
2018-03-31T17:53:57.356Z,91.20
2018-03-31T17:56:24.372Z,92.00
2018-03-31T17:58:51.403Z,92.30
2018-03-31T18:01:18.471Z,94.50
2018-03-31T18:03:45.518Z,94.30
2018-03-31T18:06:13.386Z,94.70
2018-03-31T18:08:40.397Z,94.70
2018-03-31T18:11:07.441Z,97.00
2018-03-31T18:13:34.492Z,96.40
2018-03-31T18:16:01.544Z,94.10
2018-03-31T18:18:29.785Z,94.30
2018-03-31T18:20:56.830Z,96.20
2018-03-31T18:23:23.856Z,95.20
2018-03-31T18:25:50.912Z,97.10
2018-03-31T18:28:17.954Z,98.30
2018-03-31T18:30:45.779Z,98.80
2018-03-31T18:33:12.801Z,98.80
2018-03-31T18:35:40.607Z,99.20
2018-03-31T18:38:07.626Z,99.10
2018-03-31T18:40:35.504Z,99.90
2018-03-31T18:43:03.799Z,99.90
2018-03-31T18:45:30.904Z,99.90
2018-03-31T18:47:58.009Z,99.90
2018-03-31T18:50:25.791Z,99.90
2018-03-31T18:52:53.595Z,99.90
2018-03-31T18:55:20.754Z,99.90
2018-03-31T18:57:48.634Z,99.90
2018-03-31T19:00:15.664Z,99.90
2018-03-31T19:02:43.501Z,99.90
2018-03-31T19:05:10.527Z,99.90
2018-03-31T19:07:37.563Z,99.90
2018-03-31T19:10:05.459Z,99.90
2018-03-31T19:12:32.612Z,99.90
2018-03-31T19:15:00.514Z,99.90
2018-03-31T19:17:27.576Z,99.90
2018-03-31T19:19:54.595Z,99.90
2018-03-31T19:22:22.411Z,99.90
2018-03-31T19:24:54.963Z,99.90
2018-03-31T19:27:22.807Z,99.10
2018-03-31T19:29:50.060Z,99.10
2018-03-31T19:32:17.075Z,99.70
2018-03-31T19:34:44.875Z,99.60
2018-03-31T19:37:11.883Z,99.60
2018-03-31T19:39:44.620Z,99.90
2018-03-31T19:42:11.630Z,99.90
2018-03-31T19:44:38.672Z,99.90
2018-03-31T19:47:05.719Z,99.90
2018-03-31T19:49:32.772Z,99.90
2018-03-31T19:52:00.000Z,99.90
2018-03-31T19:54:27.544Z,99.90
2018-03-31T19:56:55.136Z,99.90
2018-03-31T19:59:22.954Z,99.90
2018-03-31T20:01:50.059Z,99.90
2018-03-31T20:04:17.095Z,99.90
2018-03-31T20:06:44.158Z,99.90
2018-03-31T20:09:11.191Z,99.90
2018-03-31T20:11:38.227Z,99.90
2018-03-31T20:14:06.059Z,99.90
2018-03-31T20:16:33.193Z,99.90
2018-03-31T20:19:00.272Z,99.90
2018-03-31T20:21:27.317Z,99.90
2018-03-31T20:23:54.355Z,99.90
2018-03-31T20:26:21.455Z,99.90
2018-03-31T20:28:48.464Z,99.90
2018-03-31T20:31:15.506Z,99.90
2018-03-31T20:33:43.323Z,99.90
2018-03-31T20:36:10.358Z,99.90
2018-03-31T20:38:37.371Z,99.90
2018-03-31T20:41:04.494Z,99.90
2018-03-31T20:43:31.818Z,99.90
2018-03-31T20:46:00.712Z,99.90
2018-03-31T20:48:27.745Z,99.90
2018-03-31T20:50:54.785Z,99.90
2018-03-31T20:53:21.827Z,99.90
2018-03-31T20:55:48.883Z,99.90
2018-03-31T20:58:15.911Z,99.90
2018-03-31T21:00:42.984Z,99.90
2018-03-31T21:03:10.782Z,99.90
2018-03-31T21:08:29.143Z,99.90
2018-03-31T21:10:56.935Z,99.90
2018-03-31T21:13:24.711Z,99.90
2018-03-31T21:15:52.516Z,99.90
2018-03-31T21:18:20.333Z,99.90
2018-03-31T21:20:47.355Z,99.90
2018-03-31T21:23:14.392Z,99.90
2018-03-31T21:25:41.415Z,99.90
2018-03-31T21:28:08.427Z,99.90
2018-03-31T21:30:35.479Z,99.90
2018-03-31T21:33:02.533Z,99.90
2018-03-31T21:35:30.348Z,99.90
2018-03-31T21:37:57.757Z,99.90
2018-03-31T21:40:25.540Z,99.90
2018-03-31T21:42:53.322Z,99.90
2018-03-31T21:45:20.413Z,99.90
2018-03-31T21:47:47.473Z,99.90
2018-03-31T21:50:14.488Z,99.90
2018-03-31T21:52:42.310Z,99.90
2018-03-31T21:55:09.333Z,99.90
2018-03-31T21:57:37.136Z,99.90
2018-03-31T22:00:04.228Z,99.90
2018-03-31T22:02:31.308Z,99.90
2018-03-31T22:04:59.172Z,99.90
2018-03-31T22:07:26.232Z,99.90
2018-03-31T22:09:53.275Z,99.90
2018-03-31T22:12:20.311Z,99.90
2018-03-31T22:17:50.982Z,99.90
2018-03-31T22:20:18.043Z,99.90
2018-03-31T22:22:45.066Z,99.90
2018-03-31T22:25:12.899Z,99.90
2018-03-31T22:27:39.932Z,99.90
2018-03-31T22:30:06.967Z,99.90
2018-03-31T22:32:34.773Z,99.90
2018-03-31T22:35:01.917Z,99.90
2018-03-31T22:37:29.037Z,99.90
2018-03-31T22:39:56.129Z,99.90
2018-03-31T22:42:23.939Z,99.90
2018-03-31T22:44:51.043Z,99.90
2018-03-31T22:47:18.121Z,99.90
2018-03-31T22:49:45.930Z,99.90
2018-03-31T22:52:12.956Z,99.90
2018-03-31T22:54:40.735Z,99.90
2018-03-31T22:57:07.850Z,99.90
2018-03-31T22:59:34.921Z,99.90
2018-03-31T23:02:02.839Z,99.90
2018-03-31T23:04:30.440Z,99.90
2018-03-31T23:06:57.477Z,99.90
2018-03-31T23:09:24.544Z,99.90
2018-03-31T23:11:51.742Z,99.90
2018-03-31T23:14:18.772Z,99.90
2018-03-31T23:16:45.912Z,99.90
2018-03-31T23:19:14.139Z,99.90
2018-03-31T23:21:41.171Z,99.90
2018-03-31T23:24:08.955Z,99.90
2018-03-31T23:26:36.064Z,99.90
2018-03-31T23:29:03.104Z,99.90
2018-03-31T23:31:30.312Z,99.90
2018-03-31T23:33:57.381Z,99.90
2018-03-31T23:36:24.399Z,99.90
2018-03-31T23:38:51.463Z,99.90
2018-03-31T23:41:19.369Z,99.90
2018-03-31T23:43:47.161Z,99.90
2018-03-31T23:46:14.188Z,99.90
2018-03-31T23:48:41.232Z,99.90
2018-03-31T23:51:08.245Z,99.90
2018-03-31T23:53:35.381Z,99.90
2018-03-31T23:56:02.648Z,99.90
2018-03-31T23:58:30.604Z,99.90
